Time;durP1;ratioP1;P1;durP2;ratioP2;P2;SDS_P1;SDS_P2;PMS_P1;PMS_P2;Temp;Humidity;BMP_temperature;BMP_pressure;BME280_temperature;BME280_humidity;BME280_pressure;Samples;Min_cycle;Max_cycle;Signal;HPM_P1;HPM_P2
2021/04/24 00:00:22;;;;;;;16.85;11.63;;;;;;;5.05;50.88;101157.53;121744;1155;22546;-76
2021/04/24 00:03:11;;;;;;;18.53;11.20;;;;;;;5.00;50.97;101162.28;121793;1156;22560;-79
2021/04/24 00:05:42;;;;;;;15.83;9.68;;;;;;;4.95;51.12;101148.67;122001;1155;22545;-77
2021/04/24 00:08:15;;;;;;;17.50;9.73;;;;;;;4.90;50.91;101156.88;122012;1155;22533;-76
2021/04/24 00:10:47;;;;;;;15.95;8.90;;;;;;;4.86;51.03;101151.95;122072;1156;22357;-77
2021/04/24 00:13:16;;;;;;;12.83;8.13;;;;;;;4.81;51.02;101148.84;121779;1155;22543;-77
2021/04/24 00:15:45;;;;;;;13.25;7.65;;;;;;;4.77;50.96;101142.17;121819;1152;22531;-77
2021/04/24 00:18:14;;;;;;;13.00;8.90;;;;;;;4.71;50.98;101146.06;122524;1152;23408;-77
2021/04/24 00:20:43;;;;;;;13.85;7.88;;;;;;;4.66;51.16;101142.92;122460;1152;22552;-79
2021/04/24 00:23:12;;;;;;;13.87;8.17;;;;;;;4.62;51.03;101147.55;122447;1152;22542;-79
2021/04/24 00:25:41;;;;;;;11.80;7.40;;;;;;;4.58;51.39;101140.86;122154;1153;22757;-78
2021/04/24 00:28:10;;;;;;;12.75;7.95;;;;;;;4.54;51.48;101151.67;121671;1158;25003;-78
2021/04/24 00:30:40;;;;;;;17.30;8.30;;;;;;;4.47;51.57;101148.66;121566;1155;22547;-79
2021/04/24 00:33:09;;;;;;;19.48;9.53;;;;;;;4.42;51.72;101145.52;121622;1154;24393;-77
2021/04/24 00:35:38;;;;;;;18.58;9.55;;;;;;;4.37;51.42;101142.41;121713;1155;22618;-77
2021/04/24 00:38:09;;;;;;;17.15;8.65;;;;;;;4.31;52.16;101134.98;121593;1155;24500;-78
2021/04/24 00:40:38;;;;;;;12.85;8.35;;;;;;;4.25;52.04;101131.84;121608;1155;25247;-78
2021/04/24 00:43:06;;;;;;;14.75;9.68;;;;;;;4.21;52.06;101143.47;121645;1156;23434;-78
2021/04/24 00:45:35;;;;;;;18.65;9.55;;;;;;;4.14;52.34;101139.61;122121;1151;22536;-76
2021/04/24 00:48:04;;;;;;;19.58;10.35;;;;;;;4.08;52.61;101137.42;122114;1151;25195;-78
2021/04/24 00:50:37;;;;;;;16.20;9.43;;;;;;;4.02;53.02;101135.22;122248;1153;22526;-78
2021/04/24 00:53:09;;;;;;;15.45;8.80;;;;;;;3.96;53.04;101135.64;122240;1152;22538;-78
2021/04/24 00:55:40;;;;;;;16.00;9.08;;;;;;;3.92;53.19;101136.80;121709;1155;22557;-79
2021/04/24 00:58:12;;;;;;;13.60;7.78;;;;;;;3.88;53.21;101132.73;122025;1155;22555;-78
2021/04/24 01:00:41;;;;;;;13.83;8.58;;;;;;;3.85;53.65;101138.17;122012;1155;22859;-78
2021/04/24 01:03:09;;;;;;;11.83;7.73;;;;;;;3.83;53.62;101137.42;122071;1155;22546;-79
2021/04/24 01:05:42;;;;;;;13.00;7.88;;;;;;;3.81;53.49;101136.72;121682;1155;22610;-79
2021/04/24 01:08:11;;;;;;;14.70;8.13;;;;;;;3.78;53.32;101141.20;121586;1156;22560;-80
2021/04/24 01:10:44;;;;;;;11.78;7.45;;;;;;;3.78;53.61;101148.20;121626;1158;22602;-78
2021/04/24 01:13:14;;;;;;;13.10;8.40;;;;;;;3.76;53.85;101145.68;121656;1158;22618;-79
2021/04/24 01:15:45;;;;;;;14.73;8.53;;;;;;;3.74;53.56;101141.52;121524;1158;22749;-79
2021/04/24 01:18:13;;;;;;;13.13;8.75;;;;;;;3.72;53.83;101131.16;121302;1161;22593;-79
2021/04/24 01:20:42;;;;;;;11.58;8.15;;;;;;;3.71;54.10;101133.89;121386;1156;22558;-79
2021/04/24 01:23:10;;;;;;;13.38;8.23;;;;;;;3.69;53.85;101136.59;121571;1155;22679;-79
2021/04/24 01:25:42;;;;;;;15.23;8.15;;;;;;;3.68;53.66;101132.31;121741;1155;22539;-79
2021/04/24 01:28:10;;;;;;;16.85;8.53;;;;;;;3.65;53.78;101127.30;122117;1156;22537;-79
2021/04/24 01:30:44;;;;;;;12.65;8.75;;;;;;;3.64;53.92;101135.25;121696;1155;22539;-77
2021/04/24 01:33:14;;;;;;;15.48;9.78;;;;;;;3.65;54.03;101131.69;121584;1158;22658;-78
2021/04/24 01:35:45;;;;;;;14.58;8.98;;;;;;;3.64;54.27;101128.25;121481;1156;23352;-78
2021/04/24 01:38:13;;;;;;;15.83;9.08;;;;;;;3.69;54.65;101133.14;121459;1158;22619;-79
2021/04/24 01:40:42;;;;;;;15.00;9.10;;;;;;;3.72;54.45;101136.38;121563;1158;22560;-79
2021/04/24 01:43:10;;;;;;;13.45;8.75;;;;;;;3.76;54.58;101122.16;121822;1156;23423;-79
2021/04/24 01:45:39;;;;;;;14.38;8.38;;;;;;;3.83;54.24;101133.03;122029;1155;22547;-77
2021/04/24 01:48:09;;;;;;;16.80;9.33;;;;;;;3.89;54.16;101126.55;122076;1155;23341;-77
2021/04/24 01:50:43;;;;;;;18.10;10.08;;;;;;;3.94;54.54;101127.09;121767;1153;22548;-79
2021/04/24 01:53:20;;;;;;;16.58;9.60;;;;;;;3.99;54.51;101128.42;122327;1152;22524;-78
2021/04/24 01:55:51;;;;;;;17.73;9.23;;;;;;;4.04;54.53;101124.67;122284;1151;22539;-80
2021/04/24 01:58:23;;;;;;;11.38;8.83;;;;;;;4.08;54.48;101128.75;122419;1152;22875;-78
2021/04/24 02:01:12;;;;;;;13.03;8.78;;;;;;;4.10;54.57;101127.70;122119;1155;23082;-79
2021/04/24 02:03:41;;;;;;;12.98;9.23;;;;;;;4.12;54.69;101125.80;122025;1156;22544;-78
2021/04/24 02:06:09;;;;;;;19.07;10.20;;;;;;;4.14;54.99;101112.63;121985;1155;22636;-80
2021/04/24 02:08:42;;;;;;;13.63;9.63;;;;;;;4.17;54.73;101123.70;121616;1156;24520;-78
2021/04/24 02:11:12;;;;;;;13.28;9.10;;;;;;;4.19;55.08;101119.19;121596;1158;25221;-78
2021/04/24 02:13:43;;;;;;;17.20;10.48;;;;;;;4.22;54.99;101116.36;121531;1158;25150;-78
2021/04/24 02:16:14;;;;;;;17.98;10.13;;;;;;;4.24;55.14;101104.02;121579;1158;22550;-78
2021/04/24 02:18:44;;;;;;;22.20;11.65;;;;;;;4.30;55.33;101107.13;121638;1157;22537;-80
2021/04/24 02:21:13;;;;;;;18.28;12.18;;;;;;;4.32;55.02;101093.01;122066;1155;22547;-79
2021/04/24 02:23:41;;;;;;;18.50;12.05;;;;;;;4.36;55.04;101107.53;122014;1155;22577;-79
2021/04/24 02:26:10;;;;;;;22.10;12.78;;;;;;;4.41;54.82;101094.98;121653;1152;22547;-79
2021/04/24 02:28:40;;;;;;;20.48;12.30;;;;;;;4.44;54.73;101092.14;122170;1155;24380;-78
2021/04/24 02:31:08;;;;;;;22.83;13.25;;;;;;;4.47;54.55;101102.39;122092;1155;22599;-78
2021/04/24 02:33:36;;;;;;;23.00;14.25;;;;;;;4.49;54.69;101089.19;122030;1155;22531;-78
2021/04/24 02:36:05;;;;;;;24.45;13.00;;;;;;;4.52;54.49;101088.97;122071;1155;22539;-78
2021/04/24 02:38:34;;;;;;;23.65;12.93;;;;;;;4.51;54.58;101087.30;122065;1153;23208;-78
2021/04/24 02:41:05;;;;;;;23.25;13.63;;;;;;;4.54;54.87;101089.70;122031;1155;24445;-78
2021/04/24 02:43:33;;;;;;;24.63;14.78;;;;;;;4.57;54.64;101086.03;122104;1155;22544;-78
2021/04/24 02:46:02;;;;;;;29.65;13.55;;;;;;;4.58;54.71;101090.31;121486;1158;22614;-78
2021/04/24 02:48:30;;;;;;;20.95;12.68;;;;;;;4.60;54.73;101077.94;121609;1158;22610;-79
2021/04/24 02:50:59;;;;;;;24.43;14.43;;;;;;;4.61;54.45;101083.07;121579;1158;22547;-79
2021/04/24 02:53:28;;;;;;;18.00;13.15;;;;;;;4.61;54.62;101071.77;121555;1158;25003;-78
2021/04/24 02:55:56;;;;;;;20.90;13.20;;;;;;;4.62;54.36;101070.82;121599;1155;22601;-77
2021/04/24 02:58:28;;;;;;;25.13;15.60;;;;;;;4.62;54.45;101074.27;121597;1153;24475;-77
2021/04/24 03:00:56;;;;;;;22.23;13.98;;;;;;;4.65;54.52;101086.30;122069;1153;22602;-77
2021/04/24 03:03:25;;;;;;;23.18;13.83;;;;;;;4.64;54.28;101077.63;122095;1152;23326;-77
2021/04/24 03:05:54;;;;;;;25.80;14.03;;;;;;;4.65;54.23;101076.66;122348;1152;22534;-77
2021/04/24 03:08:23;;;;;;;24.03;14.58;;;;;;;4.66;54.44;101080.94;122446;1152;22629;-77
2021/04/24 03:10:51;;;;;;;25.05;13.60;;;;;;;4.68;54.62;101088.70;122435;1152;22528;-77
2021/04/24 03:13:20;;;;;;;22.55;13.53;;;;;;;4.69;54.49;101085.95;122412;1154;22535;-77
2021/04/24 03:15:48;;;;;;;22.87;13.17;;;;;;;4.72;54.83;101082.28;122286;1152;22541;-78
2021/04/24 03:18:16;;;;;;;25.13;13.87;;;;;;;4.72;55.17;101082.28;122228;1152;22527;-78
2021/04/24 03:20:44;;;;;;;23.58;13.38;;;;;;;4.72;54.95;101077.05;122272;1152;22521;-77
2021/04/24 03:23:13;;;;;;;17.80;12.18;;;;;;;4.72;54.86;101080.50;122277;1152;22525;-78
2021/04/24 03:25:41;;;;;;;19.25;11.60;;;;;;;4.71;54.82;101078.84;122339;1152;22536;-78
2021/04/24 03:28:10;;;;;;;24.60;13.40;;;;;;;4.71;55.11;101086.69;122183;1150;22535;-78
2021/04/24 03:30:38;;;;;;;21.98;13.48;;;;;;;4.72;55.10;101090.97;122448;1152;25180;-79
2021/04/24 03:33:06;;;;;;;26.10;13.15;;;;;;;4.71;55.08;101086.69;122192;1150;22605;-79
2021/04/24 03:35:38;;;;;;;20.05;12.00;;;;;;;4.71;55.47;101086.69;122239;1152;23384;-79
2021/04/24 03:38:07;;;;;;;16.73;12.33;;;;;;;4.72;55.47;101090.97;122221;1152;22535;-80
2021/04/24 03:40:35;;;;;;;20.05;12.65;;;;;;;4.72;55.57;101090.97;121706;1155;24193;-79
2021/04/24 03:43:03;;;;;;;19.33;11.93;;;;;;;4.74;55.50;101092.66;121560;1160;22649;-79
2021/04/24 03:45:32;;;;;;;19.27;11.47;;;;;;;4.74;55.37;101093.48;121560;1156;22557;-80
2021/04/24 03:48:00;;;;;;;18.80;12.45;;;;;;;4.75;55.53;101092.53;121497;1156;24560;-79
2021/04/24 03:50:29;;;;;;;19.78;12.23;;;;;;;4.78;55.54;101101.95;121546;1158;22617;-78
2021/04/24 03:52:57;;;;;;;25.13;13.43;;;;;;;4.80;55.42;101100.90;121113;1159;22634;-79
2021/04/24 03:55:26;;;;;;;20.98;13.23;;;;;;;4.83;55.49;101102.44;121172;1160;24485;-79
2021/04/24 03:57:55;;;;;;;19.03;12.88;;;;;;;4.85;55.27;101098.77;121036;1164;22585;-79
2021/04/24 04:00:28;;;;;;;18.27;11.87;;;;;;;4.87;55.45;101098.67;120953;1158;24734;-80
2021/04/24 04:03:02;;;;;;;21.40;11.73;;;;;;;4.90;55.41;101104.52;121398;1158;22716;-80
2021/04/24 04:05:34;;;;;;;17.75;11.10;;;;;;;4.91;55.27;101106.17;121352;1156;22605;-80
2021/04/24 04:08:05;;;;;;;20.48;12.83;;;;;;;4.94;55.23;101107.73;121492;1159;22554;-80
2021/04/24 04:10:36;;;;;;;22.58;15.58;;;;;;;4.96;55.25;101100.59;121643;1156;24693;-80
2021/04/24 04:13:06;;;;;;;20.28;13.83;;;;;;;4.97;55.32;101099.66;122145;1155;22743;-80
2021/04/24 04:15:35;;;;;;;17.80;12.58;;;;;;;4.98;55.35;101097.88;122266;1152;22597;-79
2021/04/24 04:18:16;;;;;;;17.53;11.90;;;;;;;4.99;55.36;101097.75;122313;1152;23020;-79
2021/04/24 04:21:06;;;;;;;19.33;11.83;;;;;;;5.01;55.50;101098.48;122511;1152;22545;-80
2021/04/24 04:23:36;;;;;;;22.80;12.75;;;;;;;5.05;55.50;101102.53;122338;1152;22535;-82
2021/04/24 04:26:04;;;;;;;19.65;12.35;;;;;;;5.10;55.50;101099.59;122282;1153;22531;-78
2021/04/24 04:28:32;;;;;;;21.60;12.53;;;;;;;5.15;55.40;101113.16;122231;1152;22884;-77
2021/04/24 04:31:01;;;;;;;17.33;11.00;;;;;;;5.18;55.18;101103.30;122419;1152;22527;-78
2021/04/24 04:33:29;;;;;;;19.18;12.50;;;;;;;5.21;55.37;101104.02;122410;1153;24417;-77
2021/04/24 04:36:04;;;;;;;23.55;13.95;;;;;;;5.21;55.17;101106.64;122407;1150;23395;-78
2021/04/24 04:38:33;;;;;;;23.68;14.60;;;;;;;5.22;54.96;101108.30;122479;1152;22520;-76
2021/04/24 04:41:01;;;;;;;21.00;14.43;;;;;;;5.25;55.47;101108.08;122403;1152;24674;-77
2021/04/24 04:43:29;;;;;;;25.60;13.23;;;;;;;5.25;55.17;101108.91;122442;1151;22537;-76
2021/04/24 04:46:00;;;;;;;20.00;13.98;;;;;;;5.27;55.29;101107.02;122230;1152;22528;-76
2021/04/24 04:48:28;;;;;;;19.73;13.00;;;;;;;5.28;55.01;101107.84;122399;1153;22537;-77
2021/04/24 04:50:57;;;;;;;22.45;13.73;;;;;;;5.30;54.94;101105.93;122281;1152;22640;-77
2021/04/24 04:53:25;;;;;;;18.05;12.28;;;;;;;5.31;54.93;101105.00;122471;1153;22534;-76
2021/04/24 04:56:13;;;;;;;22.43;12.63;;;;;;;5.34;54.52;101113.47;122439;1152;23455;-76
2021/04/24 04:58:41;;;;;;;21.53;12.65;;;;;;;5.36;55.16;101105.47;122435;1152;23288;-76
2021/04/24 05:01:12;;;;;;;20.25;12.95;;;;;;;5.37;54.90;101107.17;122498;1152;22698;-76
2021/04/24 05:03:43;;;;;;;21.43;12.80;;;;;;;5.40;55.16;101117.42;122430;1153;22508;-76
2021/04/24 05:06:12;;;;;;;18.08;12.63;;;;;;;5.42;55.00;101111.09;122492;1152;22540;-76
2021/04/24 05:08:40;;;;;;;16.23;9.80;;;;;;;5.46;54.82;101106.45;122226;1152;23451;-76
2021/04/24 05:11:08;;;;;;;19.10;11.15;;;;;;;5.49;54.87;101111.46;122473;1152;22588;-77
2021/04/24 05:13:37;;;;;;;16.23;10.83;;;;;;;5.56;55.44;101124.94;122419;1153;23376;-77
2021/04/24 05:16:06;;;;;;;20.80;12.88;;;;;;;5.62;55.00;101113.98;122258;1152;22540;-76
2021/04/24 05:18:34;;;;;;;20.58;12.95;;;;;;;5.70;55.03;101118.64;122228;1153;24680;-76
2021/04/24 05:21:03;;;;;;;21.45;12.30;;;;;;;5.75;55.12;101124.38;122517;1152;22520;-75
2021/04/24 05:23:32;;;;;;;17.83;11.43;;;;;;;5.79;54.88;101124.02;122485;1152;22601;-77
2021/04/24 05:26:00;;;;;;;14.05;10.80;;;;;;;5.83;54.95;101116.74;122250;1152;22619;-76
2021/04/24 05:28:28;;;;;;;17.73;10.33;;;;;;;5.87;54.64;101118.20;122087;1153;22544;-77
2021/04/24 05:31:02;;;;;;;18.95;10.40;;;;;;;5.91;54.54;101122.25;121467;1158;22562;-76
2021/04/24 05:33:31;;;;;;;15.43;11.10;;;;;;;5.95;54.30;101122.88;121581;1158;22840;-78
2021/04/24 05:36:03;;;;;;;13.98;9.53;;;;;;;5.98;54.43;101122.64;121583;1157;24689;-78
2021/04/24 05:38:31;;;;;;;17.10;10.50;;;;;;;5.99;54.29;101119.88;121545;1156;24386;-76
2021/04/24 05:40:59;;;;;;;15.23;10.03;;;;;;;6.06;54.45;101126.31;121597;1158;22603;-78
2021/04/24 05:43:27;;;;;;;13.23;8.83;;;;;;;6.12;54.30;101125.02;121165;1158;22566;-78
2021/04/24 05:45:56;;;;;;;13.10;9.10;;;;;;;6.18;54.18;101115.84;121161;1158;22563;-78
2021/04/24 05:48:25;;;;;;;15.65;9.10;;;;;;;6.24;53.93;101117.98;121127;1159;24807;-77
2021/04/24 05:50:53;;;;;;;15.03;9.08;;;;;;;6.30;53.79;101125.38;121136;1158;23345;-76
2021/04/24 05:53:21;;;;;;;12.08;8.58;;;;;;;6.36;53.87;101120.48;121338;1156;22672;-77
2021/04/24 05:55:49;;;;;;;12.50;7.80;;;;;;;6.39;53.53;101124.63;121781;1155;22595;-78
2021/04/24 05:58:18;;;;;;;14.58;8.75;;;;;;;6.39;53.50;101132.50;121717;1155;23859;-76
2021/04/24 06:00:46;;;;;;;19.08;11.03;;;;;;;6.39;53.23;101127.25;122055;1154;22726;-76
2021/04/24 06:03:18;;;;;;;14.73;8.60;;;;;;;6.40;53.40;101135.95;122118;1152;22531;-76
2021/04/24 06:05:47;;;;;;;17.75;10.08;;;;;;;6.40;53.46;101130.70;122250;1152;22515;-76
2021/04/24 06:08:16;;;;;;;16.40;10.53;;;;;;;6.41;52.87;101127.97;122481;1152;22535;-76
2021/04/24 06:10:44;;;;;;;13.93;10.00;;;;;;;6.43;53.57;101125.21;122054;1155;22544;-76
2021/04/24 06:13:12;;;;;;;16.30;10.23;;;;;;;6.47;53.74;101124.03;122001;1154;23118;-76
2021/04/24 06:15:40;;;;;;;30.13;10.15;;;;;;;6.53;53.91;101116.50;121695;1155;22545;-76
2021/04/24 06:18:09;;;;;;;17.50;12.38;;;;;;;6.65;54.08;101116.47;121880;1156;22551;-76
2021/04/24 06:20:39;;;;;;;20.13;10.90;;;;;;;6.81;54.03;101122.15;122037;1155;23012;-77
2021/04/24 06:23:08;;;;;;;15.30;10.88;;;;;;;7.01;54.05;101120.52;121606;1158;25214;-77
2021/04/24 06:25:36;;;;;;;13.05;9.70;;;;;;;7.22;53.83;101121.38;121545;1158;24512;-77
2021/04/24 06:28:05;;;;;;;21.73;12.68;;;;;;;7.45;53.50;101116.00;121637;1155;22552;-77
2021/04/24 06:30:34;;;;;;;18.75;11.23;;;;;;;7.67;52.80;101122.92;122195;1154;24686;-76
2021/04/24 06:33:03;;;;;;;17.13;10.63;;;;;;;7.85;52.47;101121.34;122081;1155;22632;-77
2021/04/24 06:35:31;;;;;;;20.27;11.47;;;;;;;8.02;52.13;101120.72;121763;1155;22544;-77
2021/04/24 06:37:59;;;;;;;17.88;9.95;;;;;;;8.21;51.27;101111.24;121737;1155;22536;-81
2021/04/24 06:40:28;;;;;;;14.68;9.38;;;;;;;8.37;51.20;101118.64;122045;1155;22546;-78
2021/04/24 06:42:57;;;;;;;18.13;8.15;;;;;;;8.51;50.94;101114.82;121755;1155;22729;-79
2021/04/24 06:45:26;;;;;;;12.35;8.15;;;;;;;8.65;50.67;101112.61;122191;1152;22627;-80
2021/04/24 06:47:55;;;;;;;16.23;8.15;;;;;;;8.78;50.36;101109.72;122310;1152;25172;-80
2021/04/24 06:50:23;;;;;;;13.63;8.18;;;;;;;8.93;49.94;101104.89;122512;1152;22514;-80
2021/04/24 06:52:52;;;;;;;15.48;8.08;;;;;;;9.03;49.46;101103.08;122419;1152;22527;-80
2021/04/24 06:55:20;;;;;;;13.83;9.98;;;;;;;9.10;49.11;101104.19;122214;1151;25138;-80
2021/04/24 06:59:26;;;;;;;12.53;8.73;;;;;;;9.26;49.64;101106.23;122412;1148;22578;-77
2021/04/24 07:01:54;;;;;;;13.45;8.60;;;;;;;9.38;49.42;101106.92;122483;1152;25292;-84
2021/04/24 07:04:23;;;;;;;17.20;9.53;;;;;;;9.49;49.17;101105.92;122807;1152;22532;-85
2021/04/24 07:06:51;;;;;;;16.18;10.55;;;;;;;9.59;49.00;101097.00;122648;1152;22534;-84
2021/04/24 07:09:20;;;;;;;16.68;11.40;;;;;;;9.72;48.93;101101.14;122977;1152;22705;-84
2021/04/24 07:11:49;;;;;;;12.45;9.10;;;;;;;9.78;48.85;101104.04;122690;1151;22528;-84
2021/04/24 07:14:17;;;;;;;15.20;8.98;;;;;;;9.83;48.60;101103.59;122406;1154;22532;-85
2021/04/24 07:16:47;;;;;;;18.63;7.20;;;;;;;9.79;47.91;101113.61;122585;1153;24428;-83
2021/04/24 07:19:17;;;;;;;19.23;7.48;;;;;;;9.74;48.03;101102.67;121953;1156;23398;-85
2021/04/24 07:21:46;;;;;;;11.50;6.43;;;;;;;9.74;47.73;101109.77;121784;1156;22624;-76
2021/04/24 07:24:15;;;;;;;12.45;6.10;;;;;;;9.74;47.72;101105.31;121561;1158;24845;-76
2021/04/24 07:26:43;;;;;;;14.95;9.33;;;;;;;9.90;48.24;101108.17;121526;1156;22619;-76
2021/04/24 07:29:11;;;;;;;14.90;9.85;;;;;;;10.10;47.68;101105.45;121519;1156;22656;-76
2021/04/24 07:31:41;;;;;;;11.10;7.68;;;;;;;10.32;47.89;101099.79;121508;1157;22562;-77
2021/04/24 07:34:10;;;;;;;13.20;7.77;;;;;;;10.70;47.93;101102.36;122053;1155;24840;-76
2021/04/24 07:36:39;;;;;;;11.10;7.35;;;;;;;11.15;47.18;101107.54;122020;1153;22551;-76
2021/04/24 07:39:07;;;;;;;11.35;7.58;;;;;;;11.63;46.96;101111.54;122012;1156;22558;-76
2021/04/24 07:41:36;;;;;;;14.83;9.03;;;;;;;12.04;45.44;101110.95;122016;1155;22550;-76
2021/04/24 07:44:05;;;;;;;9.87;7.17;;;;;;;12.27;44.41;101119.16;122081;1156;24686;-76
2021/04/24 07:46:34;;;;;;;12.40;8.18;;;;;;;12.65;44.92;101117.77;122002;1156;22546;-75
2021/04/24 07:49:03;;;;;;;15.60;8.35;;;;;;;13.15;44.26;101109.70;122023;1155;22639;-78
2021/04/24 07:51:32;;;;;;;18.65;9.53;;;;;;;13.62;43.71;101111.66;122015;1155;23403;-80
2021/04/24 07:54:00;;;;;;;12.70;7.53;;;;;;;13.78;42.18;101112.64;121717;1155;22609;-76
2021/04/24 07:56:28;;;;;;;14.95;8.63;;;;;;;13.82;41.71;101116.60;122037;1154;22539;-78
2021/04/24 07:58:57;;;;;;;14.75;7.88;;;;;;;13.70;41.35;101112.67;122278;1152;22564;-77
2021/04/24 08:01:25;;;;;;;10.47;6.70;;;;;;;13.49;41.66;101113.19;122083;1155;22606;-77
2021/04/24 08:03:54;;;;;;;11.35;6.85;;;;;;;13.37;41.71;101110.06;121904;1155;22537;-81
2021/04/24 08:06:22;;;;;;;11.70;5.90;;;;;;;13.27;41.81;101112.06;122099;1155;22599;-80
2021/04/24 08:08:50;;;;;;;9.28;6.20;;;;;;;13.17;42.23;101113.02;121744;1155;24683;-80
2021/04/24 08:11:19;;;;;;;257.40;40.03;;;;;;;13.31;42.67;101111.55;122012;1156;22541;-76
2021/04/24 08:13:47;;;;;;;37.10;9.10;;;;;;;13.48;42.47;101114.19;122023;1156;24709;-74
2021/04/24 08:16:16;;;;;;;9.98;5.78;;;;;;;13.60;42.21;101111.02;122015;1155;22551;-73
2021/04/24 08:18:45;;;;;;;20.93;6.80;;;;;;;13.62;41.13;101114.32;121678;1155;22541;-73
2021/04/24 08:21:16;;;;;;;9.03;5.63;;;;;;;13.38;40.95;101115.19;122033;1155;22552;-73
2021/04/24 08:23:44;;;;;;;13.85;6.88;;;;;;;13.15;41.26;101104.39;122023;1155;24783;-76
2021/04/24 08:26:14;;;;;;;9.68;5.90;;;;;;;13.08;42.44;101111.36;121922;1152;22496;-73
2021/04/24 08:28:42;;;;;;;11.40;8.70;;;;;;;13.02;42.66;101100.58;122139;1152;23009;-73
2021/04/24 08:31:10;;;;;;;9.05;6.08;;;;;;;12.97;42.42;101103.73;122226;1152;24436;-72
2021/04/24 08:33:39;;;;;;;9.85;6.08;;;;;;;12.92;42.57;101103.39;122425;1152;22548;-72
2021/04/24 08:36:07;;;;;;;11.43;5.73;;;;;;;12.78;42.08;101104.05;122246;1152;22544;-72
2021/04/24 08:38:36;;;;;;;10.85;5.53;;;;;;;12.57;42.45;101107.98;122414;1155;22544;-72
2021/04/24 08:41:07;;;;;;;10.48;5.73;;;;;;;12.50;42.78;101106.98;122238;1152;22594;-72
2021/04/24 08:43:40;;;;;;;9.80;5.93;;;;;;;12.49;42.67;101107.95;122422;1152;22629;-72
2021/04/24 08:46:10;;;;;;;11.98;6.18;;;;;;;12.43;42.71;101108.63;122286;1152;23247;-73
2021/04/24 08:48:38;;;;;;;8.75;5.83;;;;;;;12.35;42.69;101113.88;122557;1152;22458;-72
2021/04/24 08:51:07;;;;;;;9.18;6.40;;;;;;;12.45;43.29;101111.92;122423;1152;22632;-72
2021/04/24 08:53:35;;;;;;;10.13;6.60;;;;;;;12.62;42.90;101118.91;122238;1153;24680;-72
2021/04/24 08:56:04;;;;;;;10.90;5.55;;;;;;;12.71;42.60;101107.34;122414;1152;22531;-72
2021/04/24 08:58:32;;;;;;;10.33;5.90;;;;;;;12.79;42.00;101113.64;122198;1152;22533;-72
2021/04/24 09:01:01;;;;;;;9.93;6.50;;;;;;;12.77;42.04;101110.34;122245;1154;22541;-72
2021/04/24 09:03:30;;;;;;;10.05;6.85;;;;;;;12.75;41.70;101109.67;122402;1152;22536;-73
2021/04/24 09:05:59;;;;;;;12.20;6.43;;;;;;;12.72;42.06;101103.69;122278;1152;22543;-73
2021/04/24 09:08:30;;;;;;;8.05;5.45;;;;;;;12.66;41.38;101104.38;122111;1152;22533;-72
2021/04/24 09:11:04;;;;;;;8.70;5.20;;;;;;;12.60;41.73;101102.36;122218;1152;23320;-72
2021/04/24 09:13:33;;;;;;;11.93;5.95;;;;;;;12.60;42.04;101099.72;122490;1152;22549;-72
2021/04/24 09:16:02;;;;;;;8.28;5.33;;;;;;;12.71;41.92;101101.22;122204;1152;22538;-72
2021/04/24 09:18:30;;;;;;;11.93;6.88;;;;;;;12.79;41.95;101103.87;122270;1152;22717;-72
2021/04/24 09:21:03;;;;;;;11.63;6.40;;;;;;;12.97;41.36;101108.22;122414;1153;24680;-72
2021/04/24 09:23:35;;;;;;;8.43;5.40;;;;;;;13.08;41.17;101108.70;122386;1152;22546;-73
2021/04/24 09:26:10;;;;;;;8.83;5.78;;;;;;;13.16;40.91;101099.91;122216;1154;22540;-72
2021/04/24 09:28:43;;;;;;;10.30;6.78;;;;;;;13.33;40.59;101095.48;122219;1155;22623;-73
2021/04/24 09:31:21;;;;;;;9.18;5.95;;;;;;;13.41;40.49;101090.15;122190;1152;22536;-73
2021/04/24 09:33:57;;;;;;;8.38;5.08;;;;;;;13.42;39.98;101095.27;122477;1152;25300;-74
2021/04/24 09:36:43;;;;;;;8.33;4.85;;;;;;;13.37;40.08;101089.66;122135;1152;22630;-73
2021/04/24 09:39:12;;;;;;;12.38;5.38;;;;;;;13.44;40.21;101083.69;122437;1152;22552;-72
2021/04/24 09:41:41;;;;;;;17.90;6.80;;;;;;;13.48;39.86;101088.47;122174;1152;22547;-72
2021/04/24 09:44:13;;;;;;;7.38;5.33;;;;;;;13.49;39.85;101084.81;122349;1152;22535;-73
2021/04/24 09:46:45;;;;;;;6.78;4.60;;;;;;;13.53;39.75;101090.61;122232;1151;22630;-73
2021/04/24 09:49:31;;;;;;;8.65;5.25;;;;;;;13.52;39.37;101088.96;122408;1152;22537;-72
2021/04/24 09:52:06;;;;;;;10.50;5.23;;;;;;;13.37;38.77;101078.22;122389;1154;22572;-73
2021/04/24 09:54:35;;;;;;;10.43;5.48;;;;;;;13.16;38.95;101081.34;122265;1154;22647;-72
2021/04/24 09:57:11;;;;;;;9.80;6.55;;;;;;;13.14;40.50;101081.52;122351;1152;23107;-73
2021/04/24 09:59:59;;;;;;;12.83;6.58;;;;;;;13.12;39.80;101077.37;122246;1152;22908;-72
2021/04/24 10:02:40;;;;;;;9.93;6.15;;;;;;;13.14;40.22;101080.69;122183;1152;22603;-73
2021/04/24 10:05:16;;;;;;;6.78;4.83;;;;;;;13.21;40.08;101079.03;122411;1152;23126;-73
2021/04/24 10:07:49;;;;;;;10.60;6.03;;;;;;;13.42;40.26;101073.22;122102;1155;24712;-73
2021/04/24 10:10:29;;;;;;;11.13;5.67;;;;;;;13.91;39.91;101074.92;122112;1155;24442;-73
2021/04/24 10:13:01;;;;;;;9.43;4.80;;;;;;;14.10;38.51;101074.52;122074;1155;22860;-73
2021/04/24 10:15:43;;;;;;;7.73;5.78;;;;;;;14.15;37.98;101071.33;122004;1155;22546;-72
2021/04/24 10:18:13;;;;;;;;;;;;;;;14.01;36.93;101071.05;122099;1156;22538;-71
2021/04/24 10:20:46;;;;;;;7.90;5.00;;;;;;;13.91;38.28;101067.78;122028;1155;21339;-72
2021/04/24 10:23:16;;;;;;;6.65;4.60;;;;;;;14.30;38.92;101062.45;122044;1155;22537;-74
2021/04/24 10:25:44;;;;;;;9.98;6.20;;;;;;;14.94;39.01;101070.19;122181;1153;24754;-73
2021/04/24 10:28:16;;;;;;;9.13;5.30;;;;;;;15.37;37.29;101075.80;122345;1151;22942;-72
2021/04/24 10:30:45;;;;;;;8.48;5.15;;;;;;;15.72;36.55;101076.11;122368;1152;22530;-73
2021/04/24 10:33:13;;;;;;;7.77;5.67;;;;;;;15.79;36.27;101074.36;122174;1152;22733;-73
2021/04/24 10:35:41;;;;;;;10.00;6.00;;;;;;;15.94;36.04;101056.55;122396;1153;22588;-73
2021/04/24 10:38:10;;;;;;;7.98;5.75;;;;;;;15.86;35.61;101064.65;122191;1152;22569;-73
2021/04/24 10:40:45;;;;;;;11.43;4.43;;;;;;;15.83;35.88;101058.83;122345;1152;24674;-72
2021/04/24 10:43:21;;;;;;;7.70;4.77;;;;;;;15.58;35.51;101064.42;122411;1152;22626;-72
2021/04/24 10:45:49;;;;;;;8.30;5.55;;;;;;;15.29;35.64;101065.20;122359;1152;22531;-73
2021/04/24 10:48:26;;;;;;;7.78;4.75;;;;;;;14.97;36.29;101059.19;122332;1152;22645;-72
2021/04/24 10:50:55;;;;;;;7.05;4.75;;;;;;;14.71;36.19;101061.39;122247;1154;22537;-74
2021/04/24 10:53:25;;;;;;;8.30;5.05;;;;;;;14.52;36.30;101052.86;122037;1155;22524;-72
2021/04/24 10:55:56;;;;;;;11.70;5.38;;;;;;;14.37;36.98;101049.30;121986;1155;23543;-73
2021/04/24 10:58:31;;;;;;;6.63;4.43;;;;;;;14.15;36.65;101047.42;122049;1155;22533;-73
2021/04/24 11:01:04;;;;;;;7.58;5.05;;;;;;;14.08;37.04;101050.77;122072;1155;24684;-73
2021/04/24 11:03:36;;;;;;;10.68;4.90;;;;;;;14.11;37.15;101042.45;122065;1156;22593;-72
2021/04/24 11:06:15;;;;;;;7.95;5.05;;;;;;;14.18;37.02;101045.23;122019;1155;22529;-73
2021/04/24 11:08:46;;;;;;;8.10;4.45;;;;;;;14.11;36.72;101047.76;121833;1155;22543;-73
2021/04/24 11:11:17;;;;;;;7.43;4.80;;;;;;;14.06;36.71;101043.95;121797;1151;22624;-74
2021/04/24 11:13:54;;;;;;;8.43;4.73;;;;;;;14.10;36.76;101039.98;122371;1152;22537;-73
2021/04/24 11:16:31;;;;;;;5.63;3.73;;;;;;;14.03;35.91;101045.16;122436;1151;22529;-73
2021/04/24 11:19:00;;;;;;;11.35;4.23;;;;;;;13.92;36.08;101050.01;122187;1152;22548;-74
2021/04/24 11:21:30;;;;;;;8.60;4.20;;;;;;;13.76;35.93;101042.92;122172;1151;22523;-73
2021/04/24 11:24:17;;;;;;;10.08;4.65;;;;;;;13.46;35.57;101033.89;122251;1152;22533;-72
2021/04/24 11:26:46;;;;;;;8.50;4.35;;;;;;;13.28;36.24;101042.07;122415;1152;22670;-72